createdAt,value
2019-05-30T00:00:16.069Z,10.63
2019-05-30T00:02:32.712Z,8.73
2019-05-30T00:05:02.693Z,8.53
2019-05-30T00:07:31.504Z,7.30
2019-05-30T00:10:00.581Z,6.80
2019-05-30T00:12:29.259Z,7.00
2019-05-30T00:14:58.606Z,6.37
2019-05-30T00:17:27.502Z,7.43
2019-05-30T00:19:56.760Z,6.77
2019-05-30T00:22:25.797Z,6.73
2019-05-30T00:24:54.493Z,7.07
2019-05-30T00:27:23.530Z,8.73
2019-05-30T00:29:52.247Z,8.83
2019-05-30T00:32:20.950Z,8.40
2019-05-30T00:34:49.875Z,8.37
2019-05-30T00:37:18.472Z,8.33
2019-05-30T00:39:47.399Z,7.37
2019-05-30T00:42:16.291Z,7.97
2019-05-30T00:44:45.083Z,7.00
2019-05-30T00:47:13.769Z,7.03
2019-05-30T00:49:42.564Z,6.80
2019-05-30T00:52:11.731Z,7.07
2019-05-30T00:54:40.901Z,6.50
2019-05-30T00:57:09.743Z,6.67
2019-05-30T00:59:38.353Z,6.27
2019-05-30T01:02:07.123Z,6.60
2019-05-30T01:04:35.963Z,6.47
2019-05-30T01:07:05.229Z,6.70
2019-05-30T01:09:34.387Z,7.70
2019-05-30T01:12:03.135Z,7.53
2019-05-30T01:14:32.156Z,6.53
2019-05-30T01:17:01.119Z,7.03
2019-05-30T01:19:30.295Z,7.20
2019-05-30T01:21:59.280Z,6.23
2019-05-30T01:24:27.923Z,6.93
2019-05-30T01:26:57.157Z,6.60
2019-05-30T01:29:26.113Z,6.50
2019-05-30T01:31:54.808Z,6.97
2019-05-30T01:34:23.551Z,7.00
2019-05-30T01:36:52.286Z,6.97
2019-05-30T01:39:21.061Z,7.37
2019-05-30T01:41:49.823Z,6.90
2019-05-30T01:44:18.561Z,7.20
2019-05-30T01:46:47.277Z,7.50
2019-05-30T01:49:16.121Z,7.97
2019-05-30T01:51:45.024Z,7.57
2019-05-30T01:54:13.785Z,6.90
2019-05-30T01:56:42.649Z,7.10
2019-05-30T01:59:11.371Z,7.13
2019-05-30T02:01:40.009Z,7.37
2019-05-30T02:04:09.469Z,7.27
2019-05-30T02:06:38.359Z,7.03
2019-05-30T02:09:07.599Z,7.20
2019-05-30T02:11:36.346Z,7.00
2019-05-30T02:14:05.712Z,7.50
2019-05-30T02:16:34.825Z,6.57
2019-05-30T02:19:03.822Z,7.13
2019-05-30T02:21:32.892Z,6.70
2019-05-30T02:24:01.808Z,7.93
2019-05-30T02:26:30.614Z,7.10
2019-05-30T02:28:59.959Z,7.37
2019-05-30T02:31:39.181Z,7.67
2019-05-30T02:34:00.824Z,7.60
2019-05-30T02:36:29.436Z,6.87
2019-05-30T02:38:58.423Z,7.40
2019-05-30T02:41:27.233Z,8.07
2019-05-30T02:43:55.828Z,7.27
2019-05-30T02:46:24.511Z,7.20
2019-05-30T02:48:58.862Z,6.97
2019-05-30T02:51:23.697Z,6.60
2019-05-30T02:53:52.708Z,6.77
2019-05-30T02:56:21.408Z,6.23
2019-05-30T02:58:50.322Z,6.77
2019-05-30T03:01:19.412Z,6.57
2019-05-30T03:03:48.241Z,6.37
2019-05-30T03:06:16.881Z,6.83
2019-05-30T03:08:45.519Z,6.50
2019-05-30T03:11:15.587Z,6.00
2019-05-30T03:13:44.466Z,6.63
2019-05-30T03:16:13.648Z,5.80
2019-05-30T03:18:42.484Z,6.43
2019-05-30T03:21:13.463Z,6.67
2019-05-30T03:23:41.813Z,6.77
2019-05-30T03:26:13.659Z,6.53
2019-05-30T03:28:41.474Z,6.23
2019-05-30T03:31:23.037Z,6.83
2019-05-30T03:33:42.723Z,6.73
2019-05-30T03:36:24.198Z,6.97
2019-05-30T03:38:41.927Z,6.80
2019-05-30T03:41:12.158Z,6.90
2019-05-30T03:43:41.036Z,7.20
2019-05-30T03:46:13.220Z,7.43
2019-05-30T03:48:43.547Z,6.90
2019-05-30T03:51:15.125Z,6.80
2019-05-30T03:53:44.801Z,6.70
2019-05-30T03:56:16.018Z,6.50
2019-05-30T03:59:08.084Z,6.50
2019-05-30T04:01:49.026Z,7.07
2019-05-30T04:04:20.966Z,7.43
2019-05-30T04:06:51.395Z,6.80
2019-05-30T04:09:24.686Z,6.83
2019-05-30T04:11:58.485Z,6.60
2019-05-30T04:14:28.708Z,6.70
2019-05-30T04:16:57.536Z,6.90
2019-05-30T04:19:26.244Z,6.13
2019-05-30T04:21:55.206Z,6.47
2019-05-30T04:24:24.134Z,5.87
2019-05-30T04:26:52.877Z,6.43
2019-05-30T04:29:21.701Z,5.70
2019-05-30T04:31:50.374Z,6.40
2019-05-30T04:34:19.626Z,6.40
2019-05-30T04:36:52.976Z,6.07
2019-05-30T04:39:19.223Z,5.40
2019-05-30T04:41:48.087Z,5.33
2019-05-30T04:44:18.099Z,5.00
2019-05-30T04:46:47.315Z,4.80
2019-05-30T04:49:16.885Z,5.23
2019-05-30T04:51:46.536Z,4.90
2019-05-30T04:54:16.684Z,4.90
2019-05-30T04:56:46.033Z,4.70
2019-05-30T04:59:15.401Z,5.40
2019-05-30T05:01:45.525Z,4.87
2019-05-30T05:04:15.498Z,4.77
2019-05-30T05:06:44.452Z,5.03
2019-05-30T05:09:14.015Z,4.83
2019-05-30T05:11:42.751Z,5.07
2019-05-30T05:14:12.337Z,4.63
2019-05-30T05:16:41.129Z,4.70
2019-05-30T05:19:09.971Z,4.30
2019-05-30T05:21:38.725Z,4.20
2019-05-30T05:24:07.537Z,4.43
2019-05-30T05:26:36.355Z,4.03
2019-05-30T05:29:05.052Z,4.00
2019-05-30T05:31:34.331Z,4.10
2019-05-30T05:34:03.281Z,4.07
2019-05-30T05:36:31.888Z,3.87
2019-05-30T05:39:00.765Z,3.90
2019-05-30T05:41:29.434Z,3.33
2019-05-30T05:43:58.263Z,3.40
2019-05-30T05:46:27.037Z,3.53
2019-05-30T05:48:55.860Z,3.93
2019-05-30T05:51:24.844Z,3.60
2019-05-30T05:53:54.083Z,3.30
2019-05-30T05:56:22.937Z,3.13
2019-05-30T05:58:51.770Z,3.00
2019-05-30T06:01:21.445Z,3.23
2019-05-30T06:03:50.370Z,2.70
2019-05-30T06:06:19.355Z,2.33
2019-05-30T06:08:48.064Z,2.45
2019-05-30T06:11:17.048Z,1.90
2019-05-30T06:13:46.005Z,2.08
2019-05-30T06:16:15.075Z,1.77
2019-05-30T06:18:43.769Z,2.00
2019-05-30T06:21:12.786Z,1.98
2019-05-30T06:23:45.293Z,1.55
2019-05-30T06:26:12.125Z,1.77
2019-05-30T06:28:41.307Z,1.95
2019-05-30T06:31:10.113Z,1.80
2019-05-30T06:33:38.752Z,2.05
2019-05-30T06:36:07.637Z,1.57
2019-05-30T06:38:36.373Z,1.60
2019-05-30T06:41:05.363Z,2.10
2019-05-30T06:43:34.131Z,2.15
2019-05-30T06:46:03.181Z,1.60
2019-05-30T06:48:32.299Z,1.80
2019-05-30T06:51:01.026Z,1.30
2019-05-30T06:53:31.308Z,1.60
2019-05-30T06:56:00.450Z,1.60
2019-05-30T06:58:46.946Z,1.80
2019-05-30T07:00:59.723Z,1.90
2019-05-30T07:03:28.610Z,1.72
2019-05-30T07:05:58.136Z,1.70
2019-05-30T07:08:27.122Z,1.65
2019-05-30T07:10:56.164Z,1.80
2019-05-30T07:13:25.298Z,1.75
2019-05-30T07:15:54.233Z,1.70
2019-05-30T07:18:23.456Z,1.80
2019-05-30T07:20:52.179Z,1.92
2019-05-30T07:23:21.218Z,1.87
2019-05-30T07:25:49.986Z,1.92
2019-05-30T07:28:18.929Z,1.80
2019-05-30T07:30:47.918Z,2.17
2019-05-30T07:33:16.606Z,2.02
2019-05-30T07:35:45.689Z,2.20
2019-05-30T07:38:14.791Z,2.10
2019-05-30T07:40:43.788Z,2.20
2019-05-30T07:43:12.605Z,2.58
2019-05-30T07:45:41.481Z,2.65
2019-05-30T07:48:10.273Z,2.60
2019-05-30T07:50:39.029Z,2.70
2019-05-30T07:53:08.080Z,2.98
2019-05-30T07:55:36.884Z,3.10
2019-05-30T07:58:05.782Z,3.20
2019-05-30T08:00:35.633Z,2.90
2019-05-30T08:03:04.477Z,2.90
2019-05-30T08:05:33.127Z,3.07
2019-05-30T08:08:01.992Z,3.52
2019-05-30T08:10:31.913Z,3.50
2019-05-30T08:13:00.849Z,3.40
2019-05-30T08:15:29.646Z,3.43
2019-05-30T08:17:58.574Z,3.50
2019-05-30T08:20:27.680Z,3.70
2019-05-30T08:22:56.803Z,4.20
2019-05-30T08:25:25.518Z,4.30
2019-05-30T08:27:54.230Z,3.93
2019-05-30T08:30:22.843Z,3.97
2019-05-30T08:32:51.658Z,4.00
2019-05-30T08:35:20.838Z,4.53
2019-05-30T08:37:49.592Z,4.30
2019-05-30T08:40:19.333Z,4.13
2019-05-30T08:42:48.054Z,4.40
2019-05-30T08:45:16.954Z,4.50
2019-05-30T08:47:45.609Z,4.30
2019-05-30T08:50:15.135Z,3.37
2019-05-30T08:52:43.811Z,3.60
2019-05-30T08:55:13.266Z,4.20
2019-05-30T08:57:42.112Z,3.93
2019-05-30T09:00:12.054Z,4.57
2019-05-30T09:02:41.079Z,3.60
2019-05-30T09:05:10.105Z,4.10
2019-05-30T09:07:40.042Z,4.07
2019-05-30T09:10:09.541Z,4.43
2019-05-30T09:12:40.053Z,4.47
2019-05-30T09:15:09.287Z,4.07
2019-05-30T09:17:39.316Z,4.20
2019-05-30T09:20:09.331Z,4.03
2019-05-30T09:22:39.629Z,4.20
2019-05-30T09:25:09.114Z,3.80
2019-05-30T09:27:39.059Z,3.90
2019-05-30T09:30:08.917Z,3.90
2019-05-30T09:32:38.376Z,3.80
2019-05-30T09:35:08.934Z,3.93
2019-05-30T09:37:38.709Z,3.60
2019-05-30T09:40:08.850Z,3.60
2019-05-30T09:42:37.780Z,3.30
2019-05-30T09:45:06.910Z,4.03
2019-05-30T09:47:35.633Z,3.50
2019-05-30T09:50:05.313Z,4.17
2019-05-30T09:52:34.180Z,4.83
2019-05-30T09:55:02.849Z,3.53
2019-05-30T09:57:31.516Z,3.53
2019-05-30T10:00:00.237Z,3.63
2019-05-30T10:02:28.876Z,3.10
2019-05-30T10:04:57.986Z,3.90
2019-05-30T10:07:26.866Z,3.07
2019-05-30T10:09:55.602Z,2.60
2019-05-30T10:12:24.485Z,2.90
2019-05-30T10:14:53.523Z,3.20
2019-05-30T10:17:22.398Z,3.57
2019-05-30T10:19:51.250Z,3.40
2019-05-30T10:22:20.282Z,3.07
2019-05-30T10:24:49.134Z,2.60
2019-05-30T10:27:18.032Z,3.13
2019-05-30T10:29:47.639Z,3.07
2019-05-30T10:32:16.370Z,3.33
2019-05-30T10:34:46.185Z,3.43
2019-05-30T10:37:15.605Z,3.43
2019-05-30T10:39:45.506Z,3.50
2019-05-30T10:42:15.008Z,3.30
2019-05-30T10:44:43.664Z,3.07
2019-05-30T10:47:12.574Z,2.47
2019-05-30T10:49:41.362Z,3.40
2019-05-30T10:52:10.119Z,3.23
2019-05-30T10:54:38.791Z,2.50
2019-05-30T10:57:07.599Z,2.73
2019-05-30T10:59:36.287Z,2.57
2019-05-30T11:02:05.214Z,2.30
2019-05-30T11:04:34.137Z,2.40
2019-05-30T11:07:11.427Z,2.33
2019-05-30T11:09:38.458Z,2.50
2019-05-30T11:12:07.278Z,1.83
2019-05-30T11:14:36.059Z,2.20
2019-05-30T11:17:05.193Z,2.37
2019-05-30T11:19:33.923Z,1.97
2019-05-30T11:22:02.636Z,1.90
2019-05-30T11:24:31.340Z,2.13
2019-05-30T11:27:00.030Z,1.70
2019-05-30T11:29:28.637Z,1.50
2019-05-30T11:31:57.415Z,1.90
2019-05-30T11:34:26.195Z,1.57
2019-05-30T11:36:55.166Z,1.50
2019-05-30T11:39:24.138Z,1.43
2019-05-30T11:41:53.275Z,1.57
2019-05-30T11:44:22.035Z,1.73
2019-05-30T11:46:51.503Z,1.90
2019-05-30T11:49:20.209Z,1.50
2019-05-30T11:51:49.690Z,1.50
2019-05-30T11:54:18.611Z,1.53
2019-05-30T11:56:47.489Z,1.30
2019-05-30T11:59:16.217Z,1.30
2019-05-30T12:01:44.797Z,1.40
2019-05-30T12:04:13.571Z,1.20
2019-05-30T12:06:42.243Z,1.40
2019-05-30T12:09:12.841Z,1.23
2019-05-30T12:11:41.471Z,1.30
2019-05-30T12:14:10.453Z,1.20
2019-05-30T12:16:39.091Z,1.10
2019-05-30T12:19:08.160Z,1.50
2019-05-30T12:21:37.015Z,1.20
2019-05-30T12:24:05.647Z,1.33
2019-05-30T12:26:34.533Z,1.20
2019-05-30T12:29:03.252Z,1.30
2019-05-30T12:31:31.968Z,1.10
2019-05-30T12:34:00.618Z,1.10
2019-05-30T12:36:29.385Z,1.60
2019-05-30T12:38:58.462Z,1.50
2019-05-30T12:41:27.499Z,1.27
2019-05-30T12:43:56.962Z,1.33
2019-05-30T12:46:25.775Z,1.10
2019-05-30T12:48:55.191Z,1.30
2019-05-30T12:51:23.887Z,1.40
2019-05-30T12:53:52.540Z,1.17
2019-05-30T12:56:21.495Z,1.20
2019-05-30T12:58:50.327Z,1.30
2019-05-30T13:01:19.024Z,1.27
2019-05-30T13:03:47.887Z,1.27
2019-05-30T13:06:16.667Z,1.20
2019-05-30T13:08:45.617Z,1.50
2019-05-30T13:11:14.593Z,1.10
2019-05-30T13:13:43.299Z,0.93
2019-05-30T13:16:12.367Z,1.03
2019-05-30T13:18:41.423Z,1.10
2019-05-30T13:21:10.518Z,1.20
2019-05-30T13:23:39.233Z,1.20
2019-05-30T13:26:08.122Z,1.10
2019-05-30T13:28:36.761Z,1.17
2019-05-30T13:31:07.109Z,0.90
2019-05-30T13:33:38.281Z,1.20
2019-05-30T13:36:07.230Z,1.10
2019-05-30T13:38:36.082Z,1.10
2019-05-30T13:41:05.639Z,1.03
2019-05-30T13:43:34.718Z,1.00
2019-05-30T13:46:04.452Z,1.20
2019-05-30T13:48:33.476Z,1.00
2019-05-30T13:51:02.750Z,1.00
2019-05-30T13:53:31.727Z,1.13
2019-05-30T13:56:01.430Z,1.20
2019-05-30T13:58:30.286Z,1.10
2019-05-30T14:00:59.848Z,1.13
2019-05-30T14:03:29.677Z,1.10
2019-05-30T14:05:59.877Z,1.10
2019-05-30T14:08:40.800Z,1.10
2019-05-30T14:11:00.437Z,1.17
2019-05-30T14:13:29.371Z,1.00
2019-05-30T14:15:58.192Z,1.13
2019-05-30T14:18:26.984Z,1.10
2019-05-30T14:20:55.944Z,1.10
2019-05-30T14:23:24.886Z,1.30
2019-05-30T14:25:53.552Z,1.07
2019-05-30T14:28:22.476Z,1.30
2019-05-30T14:30:51.228Z,1.00
2019-05-30T14:33:19.984Z,1.10
2019-05-30T14:35:48.768Z,1.10
2019-05-30T14:38:17.480Z,1.10
2019-05-30T14:40:46.080Z,1.10
2019-05-30T14:43:15.016Z,1.20
2019-05-30T14:45:43.658Z,1.20
2019-05-30T14:48:12.611Z,1.10
2019-05-30T14:50:41.684Z,1.10
2019-05-30T14:53:11.002Z,1.10
2019-05-30T14:55:39.881Z,1.30
2019-05-30T14:58:09.091Z,1.10
2019-05-30T15:00:38.322Z,1.40
2019-05-30T15:03:10.160Z,1.23
2019-05-30T15:05:37.914Z,1.12
2019-05-30T15:08:06.601Z,1.20
2019-05-30T15:10:35.247Z,1.40
2019-05-30T15:13:03.886Z,1.20
2019-05-30T15:15:32.701Z,1.30
2019-05-30T15:18:01.321Z,1.30
2019-05-30T15:20:30.623Z,1.10
2019-05-30T15:22:59.528Z,1.63
2019-05-30T15:25:28.330Z,1.20
2019-05-30T15:27:57.145Z,1.30
2019-05-30T15:30:26.212Z,1.30
2019-05-30T15:32:54.999Z,1.53
2019-05-30T15:35:23.736Z,1.40
2019-05-30T15:37:52.414Z,1.37
2019-05-30T15:40:21.284Z,1.40
2019-05-30T15:42:53.034Z,1.40
2019-05-30T15:45:21.111Z,1.70
2019-05-30T15:47:49.854Z,1.43
2019-05-30T15:50:19.117Z,1.40
2019-05-30T15:52:48.360Z,2.42
2019-05-30T15:55:17.551Z,1.52
2019-05-30T15:57:46.691Z,1.70
2019-05-30T16:00:16.167Z,1.60
2019-05-30T16:02:45.169Z,1.70
2019-05-30T16:05:14.732Z,1.40
2019-05-30T16:07:43.561Z,3.77
2019-05-30T16:10:12.900Z,1.50
2019-05-30T16:12:41.945Z,1.42
2019-05-30T16:15:11.656Z,1.43
2019-05-30T16:17:40.653Z,1.33
2019-05-30T16:20:10.087Z,1.37
2019-05-30T16:22:39.093Z,1.53
2019-05-30T16:25:08.302Z,1.42
2019-05-30T16:27:37.285Z,1.70
2019-05-30T16:30:07.842Z,1.50
2019-05-30T16:32:36.852Z,1.52
2019-05-30T16:35:05.831Z,1.55
2019-05-30T16:37:34.643Z,1.32
2019-05-30T16:40:06.522Z,1.70
2019-05-30T16:42:34.071Z,1.40
2019-05-30T16:45:03.051Z,1.57
2019-05-30T16:47:31.977Z,1.37
2019-05-30T16:50:00.773Z,1.50
2019-05-30T16:52:29.611Z,1.42
2019-05-30T16:54:58.288Z,1.30
2019-05-30T16:57:27.254Z,1.20
2019-05-30T16:59:56.245Z,1.37
2019-05-30T17:02:24.911Z,1.40
2019-05-30T17:04:53.701Z,1.60
2019-05-30T17:07:23.411Z,1.50
2019-05-30T17:09:52.215Z,1.53
2019-05-30T17:12:21.754Z,1.75
2019-05-30T17:14:50.771Z,1.75
2019-05-30T17:17:19.931Z,1.60
2019-05-30T17:19:48.935Z,1.77
2019-05-30T17:22:18.586Z,1.60
2019-05-30T17:24:47.524Z,1.50
2019-05-30T17:27:17.318Z,1.75
2019-05-30T17:29:45.963Z,1.87
2019-05-30T17:32:14.683Z,2.00
2019-05-30T17:34:43.578Z,1.70
2019-05-30T17:37:12.415Z,1.70
2019-05-30T17:39:41.155Z,1.70
2019-05-30T17:42:09.923Z,1.40
2019-05-30T17:44:38.748Z,1.70
2019-05-30T17:47:07.595Z,1.90
2019-05-30T17:49:36.324Z,2.00
2019-05-30T17:52:04.967Z,1.67
2019-05-30T17:54:33.760Z,1.77
2019-05-30T17:57:02.513Z,1.40
2019-05-30T17:59:31.198Z,1.40
2019-05-30T18:02:00.980Z,1.33
2019-05-30T18:04:30.769Z,1.60
2019-05-30T18:06:59.609Z,1.30
2019-05-30T18:09:29.147Z,1.50
2019-05-30T18:11:58.099Z,2.20
2019-05-30T18:14:27.208Z,1.70
2019-05-30T18:16:56.346Z,2.10
2019-05-30T18:19:25.438Z,1.80
2019-05-30T18:21:54.136Z,1.80
2019-05-30T18:24:23.441Z,1.80
2019-05-30T18:26:52.276Z,1.53
2019-05-30T18:29:21.779Z,1.70
2019-05-30T18:31:50.562Z,1.60
2019-05-30T18:34:19.499Z,1.80
2019-05-30T18:36:48.358Z,1.80
2019-05-30T18:39:17.327Z,1.50
2019-05-30T18:41:45.944Z,1.80
2019-05-30T18:44:14.994Z,1.70
2019-05-30T18:46:43.896Z,1.97
2019-05-30T18:49:12.594Z,1.63
2019-05-30T18:51:41.510Z,1.40
2019-05-30T18:54:10.472Z,1.80
2019-05-30T18:56:39.196Z,1.60
2019-05-30T18:59:08.096Z,1.60
2019-05-30T19:01:37.970Z,1.75
2019-05-30T19:04:06.955Z,1.90
2019-05-30T19:06:36.244Z,1.87
2019-05-30T19:09:06.369Z,1.70
2019-05-30T19:11:36.687Z,1.67
2019-05-30T19:14:05.544Z,1.67
2019-05-30T19:16:34.607Z,1.80
2019-05-30T19:19:03.688Z,1.87
2019-05-30T19:21:32.469Z,2.03
2019-05-30T19:24:01.295Z,1.70
2019-05-30T19:26:30.432Z,1.90
2019-05-30T19:28:59.494Z,1.77
2019-05-30T19:31:28.559Z,1.73
2019-05-30T19:33:57.434Z,1.67
2019-05-30T19:36:26.826Z,1.90
2019-05-30T19:38:55.696Z,1.73
2019-05-30T19:41:24.366Z,1.60
2019-05-30T19:43:53.091Z,1.80
2019-05-30T19:46:21.817Z,1.80
2019-05-30T19:48:50.554Z,1.83
2019-05-30T19:51:21.088Z,1.90
2019-05-30T19:53:49.976Z,1.90
2019-05-30T19:56:18.708Z,1.60
2019-05-30T19:58:47.405Z,1.70
2019-05-30T20:01:16.092Z,2.00
2019-05-30T20:03:47.028Z,2.03
2019-05-30T20:06:15.490Z,2.13
2019-05-30T20:08:54.819Z,2.30
2019-05-30T20:11:14.790Z,2.33
2019-05-30T20:13:43.760Z,2.17
2019-05-30T20:16:12.456Z,2.47
2019-05-30T20:18:41.772Z,2.20
2019-05-30T20:21:10.523Z,2.67
2019-05-30T20:23:50.364Z,2.67
2019-05-30T20:26:09.910Z,2.30
2019-05-30T20:28:38.842Z,2.30
2019-05-30T20:31:07.671Z,2.60
2019-05-30T20:33:36.567Z,1.90
2019-05-30T20:36:05.405Z,2.30
2019-05-30T20:38:34.531Z,2.50
2019-05-30T20:41:03.372Z,2.50
2019-05-30T20:43:33.314Z,2.40
2019-05-30T20:46:02.494Z,2.20
2019-05-30T20:48:31.150Z,2.50
2019-05-30T20:51:00.351Z,2.20
2019-05-30T20:53:29.265Z,2.60
2019-05-30T20:55:57.967Z,2.30
2019-05-30T20:58:26.818Z,2.53
2019-05-30T21:00:55.559Z,2.67
2019-05-30T21:03:24.275Z,2.17
2019-05-30T21:05:53.466Z,2.00
2019-05-30T21:08:22.666Z,2.23
2019-05-30T21:10:51.775Z,2.03
2019-05-30T21:13:20.518Z,2.17
2019-05-30T21:15:49.715Z,2.30
2019-05-30T21:18:19.129Z,2.17
2019-05-30T21:20:47.921Z,2.10
2019-05-30T21:23:16.521Z,2.10
2019-05-30T21:25:45.254Z,2.37
2019-05-30T21:28:13.992Z,2.70
2019-05-30T21:30:43.287Z,3.27
2019-05-30T21:33:12.243Z,3.60
2019-05-30T21:35:41.797Z,3.47
2019-05-30T21:38:10.567Z,3.70
2019-05-30T21:40:40.331Z,3.63
2019-05-30T21:43:09.295Z,3.37
2019-05-30T21:45:38.516Z,3.50
2019-05-30T21:48:07.444Z,3.90
2019-05-30T21:50:36.492Z,3.83
2019-05-30T21:53:05.140Z,4.00
2019-05-30T21:55:34.013Z,4.27
2019-05-30T21:58:02.787Z,4.27
2019-05-30T22:00:53.355Z,3.70
2019-05-30T22:03:22.185Z,4.10
2019-05-30T22:05:52.068Z,4.00
2019-05-30T22:08:21.053Z,4.00
2019-05-30T22:10:49.866Z,3.53
2019-05-30T22:13:18.558Z,3.40
2019-05-30T22:15:48.253Z,3.77
2019-05-30T22:18:17.310Z,4.03
2019-05-30T22:20:45.975Z,4.40
2019-05-30T22:23:15.008Z,4.00
2019-05-30T22:25:44.201Z,4.33
2019-05-30T22:28:14.879Z,4.17
2019-05-30T22:30:44.294Z,3.87
2019-05-30T22:33:13.089Z,3.90
2019-05-30T22:35:42.700Z,4.10
2019-05-30T22:38:11.448Z,4.60
2019-05-30T22:40:40.299Z,4.30
2019-05-30T22:43:22.580Z,4.40
2019-05-30T22:45:39.349Z,3.53
2019-05-30T22:48:08.207Z,4.27
2019-05-30T22:50:36.921Z,3.90
2019-05-30T22:53:05.568Z,3.50
2019-05-30T22:55:34.298Z,3.57
2019-05-30T22:58:03.016Z,3.10
2019-05-30T23:00:31.617Z,3.87
2019-05-30T23:03:00.435Z,3.10
2019-05-30T23:05:29.174Z,3.30
2019-05-30T23:07:58.062Z,3.27
2019-05-30T23:10:27.009Z,3.20
2019-05-30T23:12:56.043Z,3.03
2019-05-30T23:15:24.828Z,3.17
2019-05-30T23:17:54.732Z,2.93
2019-05-30T23:20:23.968Z,3.20
2019-05-30T23:22:53.016Z,3.50
2019-05-30T23:25:21.738Z,3.00
2019-05-30T23:27:51.459Z,2.97
2019-05-30T23:30:21.900Z,3.20
2019-05-30T23:32:50.685Z,2.80
2019-05-30T23:35:19.418Z,3.10
2019-05-30T23:37:48.482Z,3.00
2019-05-30T23:40:17.662Z,2.60
2019-05-30T23:42:46.345Z,2.83
2019-05-30T23:45:15.368Z,3.10
2019-05-30T23:47:44.082Z,2.93
2019-05-30T23:50:13.003Z,3.27
2019-05-30T23:52:41.916Z,3.00
2019-05-30T23:55:10.723Z,2.77
2019-05-30T23:57:39.550Z,2.87
